Time;durP1;ratioP1;P1;durP2;ratioP2;P2;SDS_P1;SDS_P2;PMS_P1;PMS_P2;Temp;Humidity;BMP_temperature;BMP_pressure;BME280_temperature;BME280_humidity;BME280_pressure;Samples;Min_cycle;Max_cycle;Signal;HPM_P1;HPM_P2
2022/03/03 00:00:22;;;;;;;15.38;13.98;;;4.20;99.90;;;;;;4941473;29;20232;-63
2022/03/03 00:02:50;;;;;;;14.27;12.85;;;4.00;99.90;;;;;;4951960;29;20215;-63
2022/03/03 00:05:18;;;;;;;15.88;14.38;;;3.90;99.90;;;;;;4950556;29;20203;-63
2022/03/03 00:07:46;;;;;;;14.35;13.05;;;4.00;99.90;;;;;;4949321;29;20231;-62
2022/03/03 00:10:15;;;;;;;15.48;13.98;;;4.00;99.90;;;;;;4952422;29;20278;-62
2022/03/03 00:12:42;;;;;;;14.55;13.07;;;3.80;99.90;;;;;;4947068;29;20664;-62
2022/03/03 00:15:12;;;;;;;15.07;13.23;;;3.40;99.90;;;;;;4953921;29;20227;-63
2022/03/03 00:17:40;;;;;;;15.40;13.90;;;3.20;99.90;;;;;;4954101;28;20265;-63
2022/03/03 00:20:08;;;;;;;15.43;13.95;;;3.30;99.90;;;;;;4954584;29;20208;-63
2022/03/03 00:22:36;;;;;;;15.70;14.20;;;3.50;99.90;;;;;;4948049;29;20294;-63
2022/03/03 00:25:05;;;;;;;15.00;13.40;;;3.50;99.90;;;;;;4952818;29;20278;-63
2022/03/03 00:27:34;;;;;;;13.88;12.48;;;3.60;99.90;;;;;;4938754;29;20263;-63
2022/03/03 00:30:02;;;;;;;14.23;12.85;;;3.40;99.90;;;;;;4948144;29;20231;-62
2022/03/03 00:32:37;;;;;;;15.57;13.98;;;3.50;99.90;;;;;;4936561;29;20204;-63
2022/03/03 00:35:06;;;;;;;14.45;13.05;;;3.50;99.90;;;;;;4948468;29;20298;-63
2022/03/03 00:37:34;;;;;;;15.38;13.80;;;3.40;99.90;;;;;;4948386;29;20231;-63
2022/03/03 00:40:02;;;;;;;14.10;12.88;;;3.30;99.90;;;;;;4948905;29;20192;-63
2022/03/03 00:42:30;;;;;;;16.23;14.73;;;3.40;99.90;;;;;;4943614;29;20216;-63
2022/03/03 00:44:58;;;;;;;15.52;13.93;;;3.60;99.90;;;;;;4950248;29;20242;-63
2022/03/03 00:47:27;;;;;;;14.25;12.95;;;3.40;99.90;;;;;;4954623;29;20223;-62
2022/03/03 00:49:56;;;;;;;15.77;14.15;;;3.50;99.90;;;;;;4947948;29;20262;-63
2022/03/03 00:52:24;;;;;;;15.48;13.90;;;3.60;99.90;;;;;;4941788;29;20239;-63
2022/03/03 00:54:52;;;;;;;14.45;13.05;;;3.40;99.90;;;;;;4946786;29;20725;-63
2022/03/03 00:57:19;;;;;;;16.90;14.75;;;3.30;99.90;;;;;;4954610;29;20257;-61
2022/03/03 00:59:47;;;;;;;15.68;14.23;;;3.20;99.90;;;;;;4947542;28;20278;-62
2022/03/03 01:02:15;;;;;;;15.93;14.23;;;2.90;99.90;;;;;;4945285;29;20212;-60
2022/03/03 01:04:43;;;;;;;15.00;13.60;;;2.70;99.90;;;;;;4944780;29;20203;-62
2022/03/03 01:07:13;;;;;;;13.57;12.27;;;2.70;99.90;;;;;;4941664;29;20250;-63
2022/03/03 01:09:40;;;;;;;14.60;12.63;;;3.00;99.90;;;;;;4948494;29;20273;-63
2022/03/03 01:12:09;;;;;;;15.30;13.73;;;3.20;99.90;;;;;;4945090;29;20724;-62
2022/03/03 01:14:37;;;;;;;15.30;13.80;;;3.40;99.90;;;;;;4944963;28;20290;-62
2022/03/03 01:17:05;;;;;;;16.00;14.40;;;3.30;99.90;;;;;;4945184;29;20254;-62
2022/03/03 01:19:33;;;;;;;15.18;13.77;;;3.40;99.90;;;;;;4936026;29;20765;-62
2022/03/03 01:22:01;;;;;;;14.35;13.05;;;3.50;99.90;;;;;;4942704;29;20290;-63
2022/03/03 01:24:31;;;;;;;14.10;12.15;;;3.70;99.90;;;;;;4953141;29;20211;-63
2022/03/03 01:26:59;;;;;;;14.73;13.32;;;3.90;99.90;;;;;;4943595;29;20310;-63
2022/03/03 01:29:27;;;;;;;15.07;13.65;;;3.90;99.90;;;;;;4935990;29;20248;-62
2022/03/03 01:31:55;;;;;;;14.13;12.93;;;4.00;99.90;;;;;;4941678;29;20235;-62
2022/03/03 01:34:23;;;;;;;14.30;12.90;;;4.10;99.90;;;;;;4945777;29;20208;-63
2022/03/03 01:36:51;;;;;;;13.50;12.30;;;4.20;99.90;;;;;;4943715;29;20243;-63
2022/03/03 01:39:19;;;;;;;13.52;12.32;;;4.30;99.90;;;;;;4953998;29;20635;-63
2022/03/03 01:41:48;;;;;;;13.90;12.60;;;4.40;99.90;;;;;;4949466;29;20199;-63
2022/03/03 01:44:16;;;;;;;13.48;12.20;;;4.50;99.90;;;;;;4943679;29;20732;-62
2022/03/03 01:46:51;;;;;;;13.57;12.18;;;4.60;99.90;;;;;;4939738;29;20219;-62
2022/03/03 01:49:19;;;;;;;13.77;12.40;;;4.70;99.90;;;;;;4952400;29;20253;-62
2022/03/03 01:51:47;;;;;;;13.93;12.63;;;4.70;99.90;;;;;;4952184;29;20802;-63
2022/03/03 01:54:15;;;;;;;13.52;12.27;;;4.70;99.90;;;;;;4942229;29;20283;-63
2022/03/03 01:56:43;;;;;;;14.25;12.85;;;4.70;99.90;;;;;;4953327;29;20311;-63
2022/03/03 01:59:14;;;;;;;12.85;11.73;;;4.70;99.90;;;;;;4952070;28;20276;-63
2022/03/03 02:01:42;;;;;;;13.85;12.60;;;4.70;99.90;;;;;;4938651;29;20924;-63
2022/03/03 02:04:11;;;;;;;13.57;12.25;;;4.70;99.90;;;;;;4938171;29;20207;-63
2022/03/03 02:06:39;;;;;;;12.55;11.40;;;4.70;99.90;;;;;;4938135;29;20236;-63
2022/03/03 02:09:06;;;;;;;14.30;12.80;;;4.70;99.90;;;;;;4942055;29;20242;-63
2022/03/03 02:11:34;;;;;;;12.50;11.30;;;4.80;99.90;;;;;;4943605;29;20290;-63
2022/03/03 02:14:04;;;;;;;13.82;12.52;;;4.70;99.90;;;;;;4939812;29;20286;-62
2022/03/03 02:16:33;;;;;;;14.35;13.02;;;4.80;99.90;;;;;;4941134;29;20709;-63
2022/03/03 02:19:02;;;;;;;14.13;12.82;;;4.80;99.90;;;;;;4937185;29;20220;-62
2022/03/03 02:21:31;;;;;;;14.25;12.30;;;4.70;99.90;;;;;;4943757;28;20641;-63
2022/03/03 02:23:59;;;;;;;14.60;13.20;;;4.50;99.90;;;;;;4935520;29;20318;-63
2022/03/03 02:26:27;;;;;;;14.55;13.10;;;4.40;99.90;;;;;;4944583;29;20704;-63
2022/03/03 02:28:55;;;;;;;14.88;13.38;;;4.30;99.90;;;;;;4935608;29;20315;-63
2022/03/03 02:31:22;;;;;;;13.15;11.95;;;4.20;99.90;;;;;;4945066;29;20294;-61
2022/03/03 02:33:51;;;;;;;14.43;13.13;;;4.00;99.90;;;;;;4951431;29;20211;-60
2022/03/03 02:36:20;;;;;;;13.70;12.40;;;3.90;99.90;;;;;;4942091;29;20748;-61
2022/03/03 02:38:52;;;;;;;14.57;13.18;;;4.00;99.90;;;;;;4936901;28;20677;-60
2022/03/03 02:41:20;;;;;;;14.57;13.18;;;4.10;99.90;;;;;;4939048;29;20304;-62
2022/03/03 02:43:48;;;;;;;14.27;12.85;;;4.00;99.90;;;;;;4940344;29;20239;-62
2022/03/03 02:46:16;;;;;;;13.02;11.93;;;4.00;99.90;;;;;;4945736;29;20199;-62
2022/03/03 02:48:45;;;;;;;14.65;12.90;;;3.90;99.90;;;;;;4950885;29;20223;-62
2022/03/03 02:51:13;;;;;;;13.77;12.38;;;3.90;99.90;;;;;;4951894;29;20253;-62
2022/03/03 02:53:41;;;;;;;14.82;13.45;;;3.90;99.90;;;;;;4952315;29;20218;-62
2022/03/03 02:56:11;;;;;;;14.05;12.55;;;3.90;99.90;;;;;;4944792;28;20292;-62
2022/03/03 02:58:38;;;;;;;13.05;12.00;;;3.80;99.90;;;;;;4947261;29;20254;-62
2022/03/03 03:01:07;;;;;;;13.27;11.98;;;3.70;99.90;;;;;;4944499;29;20234;-62
2022/03/03 03:03:35;;;;;;;12.90;11.82;;;3.90;99.90;;;;;;4941059;29;20291;-62
2022/03/03 03:06:03;;;;;;;14.18;12.77;;;3.90;99.90;;;;;;4935472;29;20243;-61
2022/03/03 03:08:31;;;;;;;12.82;11.73;;;4.00;99.90;;;;;;4949595;29;20346;-61
2022/03/03 03:10:59;;;;;;;13.73;12.32;;;3.70;99.90;;;;;;4947724;29;20250;-62
2022/03/03 03:13:28;;;;;;;14.27;12.90;;;3.60;99.90;;;;;;4940129;29;20712;-61
2022/03/03 03:15:56;;;;;;;14.02;12.73;;;3.70;99.90;;;;;;4946266;29;20711;-62
2022/03/03 03:18:24;;;;;;;12.82;11.73;;;3.70;99.90;;;;;;4951149;29;20678;-62
2022/03/03 03:20:53;;;;;;;13.50;12.07;;;3.90;99.90;;;;;;4951921;29;20219;-62
2022/03/03 03:23:23;;;;;;;13.70;12.40;;;4.00;99.90;;;;;;4951607;29;20605;-62
2022/03/03 03:25:52;;;;;;;13.70;12.50;;;3.80;99.90;;;;;;4943556;29;20200;-62
2022/03/03 03:28:21;;;;;;;14.50;13.20;;;3.60;99.90;;;;;;4933558;29;20227;-62
2022/03/03 03:30:51;;;;;;;13.77;12.57;;;3.40;99.90;;;;;;4944093;29;20224;-62
2022/03/03 03:33:19;;;;;;;16.33;12.02;;;3.20;99.90;;;;;;4943420;29;20204;-62
2022/03/03 03:35:47;;;;;;;14.00;12.75;;;2.90;99.90;;;;;;4952507;29;20249;-62
2022/03/03 03:38:15;;;;;;;15.43;13.90;;;2.60;99.90;;;;;;4952066;29;20227;-62
2022/03/03 03:40:43;;;;;;;15.80;14.30;;;2.30;99.90;;;;;;4939400;29;20200;-62
2022/03/03 03:43:11;;;;;;;17.48;12.80;;;2.00;99.90;;;;;;4943374;29;20231;-62
2022/03/03 03:45:39;;;;;;;15.15;13.77;;;2.00;99.90;;;;;;4938443;29;20216;-62
2022/03/03 03:48:08;;;;;;;14.35;12.95;;;1.90;99.90;;;;;;4939097;29;20211;-62
2022/03/03 03:50:36;;;;;;;15.68;14.25;;;2.00;99.90;;;;;;4949402;29;20314;-62
2022/03/03 03:53:04;;;;;;;14.65;13.27;;;2.20;99.90;;;;;;4934487;29;20214;-62
2022/03/03 03:55:32;;;;;;;15.93;14.32;;;2.30;99.90;;;;;;4952204;29;20242;-62
2022/03/03 03:58:00;;;;;;;13.02;11.82;;;2.50;99.90;;;;;;4947551;28;20220;-62
2022/03/03 04:00:28;;;;;;;15.52;13.98;;;2.50;99.90;;;;;;4950031;29;20208;-62
2022/03/03 04:02:56;;;;;;;15.70;14.32;;;2.40;99.90;;;;;;4940360;29;20228;-62
2022/03/03 04:05:26;;;;;;;14.60;13.27;;;2.00;99.90;;;;;;4935772;29;20851;-62
2022/03/03 04:07:54;;;;;;;16.85;15.15;;;1.80;99.90;;;;;;4944448;29;20224;-62
2022/03/03 04:10:22;;;;;;;16.08;14.57;;;1.50;99.90;;;;;;4953581;29;20223;-60
2022/03/03 04:12:50;;;;;;;16.63;15.05;;;1.30;99.90;;;;;;4945842;29;20249;-62
2022/03/03 04:15:18;;;;;;;15.73;14.23;;;1.20;99.90;;;;;;4946455;29;20199;-61
2022/03/03 04:17:46;;;;;;;14.80;13.38;;;1.40;99.90;;;;;;4941406;29;20285;-61
2022/03/03 04:20:13;;;;;;;14.85;13.48;;;1.60;99.90;;;;;;4937843;29;20200;-60
2022/03/03 04:22:43;;;;;;;16.13;14.63;;;1.90;99.90;;;;;;4947781;29;20246;-61
2022/03/03 04:25:11;;;;;;;15.90;14.38;;;1.90;99.90;;;;;;4941777;29;20283;-61
2022/03/03 04:27:39;;;;;;;16.63;14.55;;;1.80;99.90;;;;;;4941338;29;20287;-61
2022/03/03 04:30:10;;;;;;;14.00;12.75;;;1.90;99.90;;;;;;4939186;29;20215;-61
2022/03/03 04:32:38;;;;;;;14.02;12.73;;;2.20;99.90;;;;;;4955194;28;20252;-61
2022/03/03 04:35:08;;;;;;;14.45;12.95;;;2.40;99.90;;;;;;4950586;29;20235;-61
2022/03/03 04:37:36;;;;;;;13.45;12.25;;;2.50;99.90;;;;;;4952613;29;20237;-61
2022/03/03 04:40:08;;;;;;;13.75;12.43;;;2.70;99.90;;;;;;4951906;29;20223;-61
2022/03/03 04:42:36;;;;;;;12.50;11.48;;;2.80;99.90;;;;;;4952863;28;20222;-61
2022/03/03 04:45:05;;;;;;;14.32;13.00;;;3.00;99.90;;;;;;4942344;29;20642;-60
2022/03/03 04:47:34;;;;;;;13.02;11.82;;;3.10;99.90;;;;;;4943798;28;20282;-60
2022/03/03 04:50:02;;;;;;;13.05;11.95;;;3.30;99.90;;;;;;4939244;29;20339;-61
2022/03/03 04:52:30;;;;;;;13.40;12.10;;;3.40;99.90;;;;;;4947541;29;20230;-61
2022/03/03 04:54:57;;;;;;;12.88;11.73;;;3.40;99.90;;;;;;4939361;29;20291;-62
2022/03/03 04:57:27;;;;;;;12.88;11.63;;;3.50;99.90;;;;;;4952515;29;20254;-61
2022/03/03 04:59:55;;;;;;;15.13;11.70;;;3.60;99.90;;;;;;4952579;29;20207;-61
2022/03/03 05:02:23;;;;;;;12.82;11.63;;;3.60;99.90;;;;;;4949514;29;20278;-61
2022/03/03 05:04:51;;;;;;;13.23;11.50;;;3.60;99.90;;;;;;4952539;29;20687;-62
2022/03/03 05:07:19;;;;;;;12.57;11.48;;;3.70;99.90;;;;;;4939890;28;20716;-63
2022/03/03 05:09:47;;;;;;;13.82;12.50;;;3.70;99.90;;;;;;4944713;29;20589;-62
2022/03/03 05:12:15;;;;;;;13.50;12.20;;;3.40;99.90;;;;;;4944591;29;20295;-62
2022/03/03 05:14:44;;;;;;;17.05;13.48;;;3.20;99.90;;;;;;4946894;29;20259;-62
2022/03/03 05:17:12;;;;;;;13.40;11.95;;;2.70;99.90;;;;;;4945213;29;20318;-61
2022/03/03 05:19:40;;;;;;;13.73;12.52;;;2.10;99.90;;;;;;4943498;29;20250;-61
2022/03/03 05:22:08;;;;;;;14.02;12.60;;;1.80;99.90;;;;;;4944382;29;20293;-61
2022/03/03 05:24:36;;;;;;;13.43;12.13;;;1.90;99.90;;;;;;4945144;29;20292;-62
2022/03/03 05:27:04;;;;;;;13.90;12.65;;;2.00;99.90;;;;;;4952260;29;20288;-63
2022/03/03 05:29:32;;;;;;;13.63;12.32;;;1.80;99.90;;;;;;4951962;29;20293;-62
2022/03/03 05:32:02;;;;;;;14.35;12.90;;;1.60;99.90;;;;;;4950972;29;20639;-60
2022/03/03 05:34:29;;;;;;;13.63;12.40;;;1.90;99.90;;;;;;4943707;29;20295;-60
2022/03/03 05:36:58;;;;;;;13.52;12.32;;;2.10;99.90;;;;;;4942308;29;20255;-62
2022/03/03 05:39:27;;;;;;;14.00;12.65;;;2.40;99.90;;;;;;4943339;29;20291;-62
2022/03/03 05:41:55;;;;;;;12.15;11.05;;;2.60;99.90;;;;;;4944797;29;20311;-62
2022/03/03 05:44:24;;;;;;;15.23;13.73;;;2.90;99.90;;;;;;4944477;28;20244;-62
2022/03/03 05:46:53;;;;;;;12.73;11.50;;;2.80;99.90;;;;;;4948414;29;20314;-63
2022/03/03 05:49:23;;;;;;;13.15;11.85;;;2.90;99.90;;;;;;4946528;29;20235;-63
2022/03/03 05:51:51;;;;;;;12.70;11.50;;;3.00;99.90;;;;;;4942540;29;20219;-63
2022/03/03 05:54:19;;;;;;;14.10;12.90;;;3.10;99.90;;;;;;4953493;29;20211;-63
2022/03/03 05:56:49;;;;;;;15.35;13.90;;;3.10;99.90;;;;;;4952096;29;20243;-63
2022/03/03 05:59:17;;;;;;;14.25;12.98;;;3.20;99.90;;;;;;4935448;29;20196;-63
2022/03/03 06:01:45;;;;;;;14.60;13.40;;;3.10;99.90;;;;;;4936893;29;20279;-63
2022/03/03 06:04:16;;;;;;;12.65;11.55;;;3.00;99.90;;;;;;4953308;29;20234;-63
2022/03/03 06:06:53;;;;;;;11.88;10.77;;;3.10;99.90;;;;;;4944388;29;20251;-63
2022/03/03 06:09:25;;;;;;;13.75;12.45;;;3.10;99.90;;;;;;4948439;29;20238;-63
2022/03/03 06:12:02;;;;;;;14.48;13.00;;;3.00;99.90;;;;;;4949590;29;20223;-63
2022/03/03 06:14:37;;;;;;;15.32;13.45;;;2.80;99.90;;;;;;4944016;29;20307;-62
2022/03/03 06:17:06;;;;;;;14.73;13.32;;;2.80;99.90;;;;;;4934775;29;20695;-62
2022/03/03 06:19:40;;;;;;;15.02;13.65;;;2.80;99.90;;;;;;4935134;29;20208;-63
2022/03/03 06:22:11;;;;;;;13.77;12.48;;;2.70;99.90;;;;;;4942279;29;20203;-62
2022/03/03 06:24:39;;;;;;;15.82;14.35;;;2.70;99.90;;;;;;4944735;29;20699;-63
2022/03/03 06:27:08;;;;;;;14.55;13.25;;;2.90;99.90;;;;;;4950329;29;20310;-62
2022/03/03 06:29:36;;;;;;;15.75;14.27;;;2.90;99.90;;;;;;4948281;29;20295;-62
2022/03/03 06:32:04;;;;;;;17.95;16.25;;;2.50;99.90;;;;;;4944955;29;20290;-62
2022/03/03 06:34:32;;;;;;;18.25;13.93;;;2.50;99.90;;;;;;4944294;29;20290;-63
2022/03/03 06:37:01;;;;;;;15.88;13.88;;;2.70;99.90;;;;;;4943866;29;20228;-62
2022/03/03 06:39:30;;;;;;;15.00;13.70;;;2.50;99.90;;;;;;4938829;29;20204;-62
2022/03/03 06:41:58;;;;;;;16.15;14.65;;;2.20;99.90;;;;;;4940202;29;20228;-62
2022/03/03 06:44:26;;;;;;;16.00;14.40;;;1.90;99.90;;;;;;4936563;29;20238;-63
2022/03/03 06:46:54;;;;;;;14.52;13.23;;;1.70;99.90;;;;;;4940205;29;20302;-61
2022/03/03 06:49:22;;;;;;;15.63;13.05;;;1.60;99.90;;;;;;4934495;29;20207;-62
2022/03/03 06:51:55;;;;;;;15.00;13.70;;;1.80;99.90;;;;;;4948851;29;20283;-61
2022/03/03 06:54:23;;;;;;;15.00;13.68;;;1.80;99.90;;;;;;4940222;29;20232;-61
2022/03/03 06:56:54;;;;;;;16.55;14.80;;;1.80;99.90;;;;;;4950508;29;20770;-62
2022/03/03 06:59:23;;;;;;;16.30;14.60;;;1.80;99.90;;;;;;4939940;29;20208;-62
2022/03/03 07:01:52;;;;;;;14.90;13.52;;;2.00;99.90;;;;;;4945862;29;20226;-61
2022/03/03 07:04:20;;;;;;;17.58;15.90;;;2.20;99.90;;;;;;4934465;29;20275;-61
2022/03/03 07:06:50;;;;;;;15.68;14.00;;;2.10;99.90;;;;;;4934481;29;20279;-60
2022/03/03 07:09:19;;;;;;;17.05;15.25;;;1.90;99.90;;;;;;4934232;29;20231;-61
2022/03/03 07:11:49;;;;;;;15.10;13.52;;;1.90;99.90;;;;;;4945951;29;20216;-61
2022/03/03 07:14:19;;;;;;;15.80;14.30;;;2.10;99.90;;;;;;4946065;28;20688;-61
2022/03/03 07:16:56;;;;;;;15.20;13.70;;;2.30;99.90;;;;;;4946033;29;20231;-61
2022/03/03 07:19:48;;;;;;;14.70;13.30;;;2.70;99.90;;;;;;4936864;29;20231;-62
2022/03/03 07:22:19;;;;;;;14.57;13.20;;;3.00;99.90;;;;;;4939671;29;20200;-61
2022/03/03 07:24:51;;;;;;;14.52;13.18;;;3.10;99.90;;;;;;4942157;29;20670;-61
2022/03/03 07:27:21;;;;;;;14.48;13.15;;;3.00;99.90;;;;;;4937821;29;20311;-61
2022/03/03 07:29:57;;;;;;;16.15;14.50;;;2.90;99.90;;;;;;4940401;29;20339;-61
2022/03/03 07:32:33;;;;;;;14.55;13.25;;;3.00;99.90;;;;;;4939670;29;20223;-62
2022/03/03 07:35:05;;;;;;;16.05;14.40;;;3.10;99.90;;;;;;4941175;29;20896;-60
2022/03/03 07:37:37;;;;;;;15.50;13.98;;;3.20;99.90;;;;;;4938484;29;20237;-61
2022/03/03 07:40:08;;;;;;;14.10;12.65;;;3.30;99.90;;;;;;4950505;28;20230;-61
2022/03/03 07:42:37;;;;;;;15.38;13.82;;;3.50;99.90;;;;;;4951013;28;20191;-61
2022/03/03 07:45:08;;;;;;;16.10;14.43;;;3.70;99.90;;;;;;4954735;28;20613;-63
2022/03/03 07:47:36;;;;;;;14.93;13.43;;;3.80;99.90;;;;;;4938825;29;20228;-62
2022/03/03 07:50:06;;;;;;;17.88;14.05;;;3.90;99.90;;;;;;4937673;29;20304;-62
2022/03/03 07:52:35;;;;;;;13.95;12.13;;;4.00;99.90;;;;;;4952503;28;20211;-61
2022/03/03 07:55:03;;;;;;;14.35;12.95;;;4.10;99.90;;;;;;4941931;28;20192;-62
2022/03/03 07:57:35;;;;;;;14.82;13.48;;;4.30;99.90;;;;;;4939969;29;20235;-62
2022/03/03 08:00:07;;;;;;;13.35;12.00;;;4.50;99.90;;;;;;4940471;28;20200;-61
2022/03/03 08:02:36;;;;;;;13.98;12.68;;;4.60;99.90;;;;;;4943817;29;20308;-62
2022/03/03 08:05:05;;;;;;;14.38;12.95;;;4.60;99.90;;;;;;4947501;29;20195;-61
2022/03/03 08:07:39;;;;;;;11.40;10.30;;;4.60;99.90;;;;;;4941342;28;20247;-63
2022/03/03 08:10:09;;;;;;;13.07;11.77;;;5.20;99.90;;;;;;4942200;28;20293;-63
2022/03/03 08:12:38;;;;;;;13.43;12.13;;;5.80;99.90;;;;;;4937523;28;20247;-63
2022/03/03 08:15:09;;;;;;;12.80;11.48;;;7.20;99.90;;;;;;4945779;28;20207;-63
2022/03/03 08:17:38;;;;;;;14.65;10.38;;;6.80;99.90;;;;;;4947757;28;20250;-63
2022/03/03 08:20:08;;;;;;;13.50;12.05;;;6.60;99.90;;;;;;4944439;28;20831;-64
2022/03/03 08:22:38;;;;;;;16.33;11.15;;;6.60;99.90;;;;;;4947765;28;20286;-63
2022/03/03 08:25:08;;;;;;;11.95;9.82;;;6.30;99.90;;;;;;4943223;28;20293;-63
2022/03/03 08:27:37;;;;;;;13.85;10.80;;;6.10;99.90;;;;;;4949790;28;20223;-63
2022/03/03 08:30:07;;;;;;;13.77;10.93;;;6.10;99.80;;;;;;4942287;28;20223;-64
2022/03/03 08:32:40;;;;;;;13.40;11.60;;;6.00;99.90;;;;;;4944257;28;20314;-63
2022/03/03 08:35:14;;;;;;;13.05;10.38;;;5.80;99.90;;;;;;4940078;28;20200;-63
2022/03/03 08:37:43;;;;;;;12.60;10.63;;;5.60;99.50;;;;;;4940533;28;20310;-63
2022/03/03 08:40:15;;;;;;;12.27;11.18;;;5.60;99.90;;;;;;4946110;28;20215;-63
2022/03/03 08:42:46;;;;;;;13.27;11.80;;;5.70;99.90;;;;;;4947585;28;20643;-64
2022/03/03 08:45:14;;;;;;;13.65;12.00;;;5.70;99.90;;;;;;4940991;28;20223;-63
2022/03/03 08:47:44;;;;;;;12.27;10.75;;;5.90;99.90;;;;;;4934281;28;20227;-64
2022/03/03 08:50:14;;;;;;;12.23;10.95;;;6.00;99.90;;;;;;4940814;28;20255;-63
2022/03/03 08:52:54;;;;;;;21.25;12.00;;;6.30;99.80;;;;;;4940701;28;20220;-63
2022/03/03 08:55:23;;;;;;;13.13;11.48;;;6.50;99.10;;;;;;4948041;28;20289;-63
2022/03/03 08:57:51;;;;;;;12.40;11.00;;;6.60;98.40;;;;;;4942316;28;20255;-63
2022/03/03 09:00:20;;;;;;;11.77;10.55;;;6.70;97.80;;;;;;4944843;28;20250;-64
2022/03/03 09:02:50;;;;;;;14.43;11.25;;;6.70;96.80;;;;;;4945514;28;20203;-63
2022/03/03 09:05:18;;;;;;;12.25;11.05;;;6.80;96.30;;;;;;4938841;28;20210;-62
2022/03/03 09:07:46;;;;;;;11.07;9.98;;;6.90;96.10;;;;;;4940932;28;20303;-63
2022/03/03 09:10:15;;;;;;;11.82;10.75;;;7.10;96.10;;;;;;4944490;28;20227;-63
2022/03/03 09:12:44;;;;;;;11.82;9.68;;;7.20;96.00;;;;;;4943846;28;20310;-63
2022/03/03 09:15:12;;;;;;;12.88;10.05;;;7.40;95.30;;;;;;4937997;28;20207;-63
2022/03/03 09:17:41;;;;;;;15.23;11.70;;;7.40;95.60;;;;;;4937203;28;20326;-63
2022/03/03 09:20:14;;;;;;;13.05;10.48;;;7.50;95.10;;;;;;4949963;28;20631;-63
2022/03/03 09:22:42;;;;;;;12.38;11.10;;;7.50;94.80;;;;;;4937594;28;20251;-63
2022/03/03 09:25:11;;;;;;;13.50;11.65;;;7.70;94.90;;;;;;4937332;28;20204;-62
2022/03/03 09:27:39;;;;;;;13.85;11.55;;;7.90;95.30;;;;;;4941240;28;20219;-62
2022/03/03 09:30:09;;;;;;;12.52;11.20;;;8.00;94.00;;;;;;4938278;28;20250;-63
2022/03/03 09:32:38;;;;;;;17.48;11.80;;;8.10;93.90;;;;;;4933088;28;20291;-63
2022/03/03 09:35:07;;;;;;;14.57;11.63;;;8.10;93.60;;;;;;4937493;28;20744;-63
2022/03/03 09:37:36;;;;;;;12.40;11.02;;;8.20;93.90;;;;;;4938368;28;20246;-63
2022/03/03 09:40:05;;;;;;;14.77;11.02;;;8.10;93.30;;;;;;4938559;28;20228;-63
2022/03/03 09:42:34;;;;;;;12.88;11.57;;;8.30;93.70;;;;;;4933596;28;20571;-63
2022/03/03 09:45:03;;;;;;;14.63;11.20;;;8.60;93.20;;;;;;4936178;28;20207;-63
2022/03/03 09:47:30;;;;;;;11.80;10.60;;;8.80;92.90;;;;;;4935614;28;20220;-63
2022/03/03 09:49:59;;;;;;;14.57;10.82;;;9.00;91.40;;;;;;4938209;28;20197;-61
2022/03/03 09:52:30;;;;;;;13.57;11.27;;;9.20;91.50;;;;;;4933757;28;20200;-61
2022/03/03 09:54:59;;;;;;;13.60;12.05;;;9.30;91.00;;;;;;4938652;28;20872;-61
2022/03/03 09:57:28;;;;;;;17.02;10.90;;;9.40;90.40;;;;;;4935129;28;20385;-61
2022/03/03 09:59:56;;;;;;;12.45;11.15;;;9.50;90.10;;;;;;4938688;28;20239;-61
2022/03/03 10:02:25;;;;;;;13.50;12.07;;;9.60;89.10;;;;;;4940583;28;20217;-62
2022/03/03 10:04:55;;;;;;;10.20;9.20;;;9.80;89.20;;;;;;4938965;28;20200;-62
2022/03/03 10:07:25;;;;;;;12.00;10.80;;;10.20;86.40;;;;;;4939621;28;20337;-61
2022/03/03 10:10:11;;;;;;;12.23;10.93;;;10.30;85.30;;;;;;4943057;28;20234;-61
2022/03/03 10:12:47;;;;;;;12.57;11.38;;;10.60;84.70;;;;;;4939933;28;20195;-62
2022/03/03 10:15:17;;;;;;;12.05;10.85;;;11.00;83.10;;;;;;4943324;28;20195;-62
2022/03/03 10:17:45;;;;;;;12.23;10.15;;;11.00;81.90;;;;;;4945180;28;20701;-62
2022/03/03 10:20:14;;;;;;;13.25;11.93;;;11.30;81.50;;;;;;4945643;28;21076;-62
2022/03/03 10:22:44;;;;;;;11.05;9.38;;;11.30;79.70;;;;;;4939572;28;20295;-62
2022/03/03 10:25:13;;;;;;;12.27;11.07;;;11.30;80.80;;;;;;4936295;28;20235;-63
2022/03/03 10:27:42;;;;;;;11.73;10.55;;;11.30;78.70;;;;;;4940241;28;20984;-63
2022/03/03 10:30:12;;;;;;;12.23;9.45;;;11.40;80.60;;;;;;4938839;28;20231;-63
2022/03/03 10:32:39;;;;;;;14.07;10.93;;;11.60;78.10;;;;;;4941938;28;20235;-63
2022/03/03 10:35:15;;;;;;;12.80;11.55;;;11.60;77.60;;;;;;4941605;28;20223;-63
2022/03/03 10:37:43;;;;;;;17.55;11.40;;;11.70;77.00;;;;;;4938741;28;20306;-63
2022/03/03 10:40:13;;;;;;;11.60;10.45;;;11.70;76.80;;;;;;4939787;28;20246;-63
2022/03/03 10:42:44;;;;;;;12.27;11.07;;;12.00;76.60;;;;;;4944283;28;20204;-63
2022/03/03 10:45:17;;;;;;;10.90;9.80;;;12.20;75.40;;;;;;4939228;28;20235;-64
2022/03/03 10:47:46;;;;;;;11.27;10.27;;;12.10;75.20;;;;;;4941829;28;20302;-63
2022/03/03 10:50:14;;;;;;;11.60;10.30;;;12.30;74.30;;;;;;4943415;28;20764;-63
2022/03/03 10:52:43;;;;;;;12.95;11.20;;;12.40;74.80;;;;;;4944859;28;20318;-63
2022/03/03 10:55:13;;;;;;;12.05;10.05;;;12.70;72.30;;;;;;4933241;28;20323;-65
2022/03/03 10:57:43;;;;;;;12.02;10.73;;;12.80;73.80;;;;;;4941118;28;20704;-63
2022/03/03 11:00:15;;;;;;;11.52;10.32;;;12.90;72.70;;;;;;4942058;28;20676;-63
2022/03/03 11:02:45;;;;;;;12.07;10.90;;;13.30;69.70;;;;;;4935675;28;20211;-63
2022/03/03 11:05:15;;;;;;;10.70;9.48;;;13.30;69.00;;;;;;4941401;28;20214;-63
2022/03/03 11:07:45;;;;;;;10.07;9.10;;;13.40;69.20;;;;;;4944713;28;20250;-63
2022/03/03 11:10:15;;;;;;;12.95;11.65;;;13.60;69.00;;;;;;4940347;28;20238;-63
2022/03/03 11:12:44;;;;;;;14.45;9.75;;;13.50;68.30;;;;;;4940187;28;20204;-63
2022/03/03 11:15:15;;;;;;;10.20;9.20;;;13.20;66.00;;;;;;4945829;28;20326;-63
2022/03/03 11:17:44;;;;;;;11.50;10.40;;;13.30;66.60;;;;;;4944059;28;20783;-64
2022/03/03 11:20:14;;;;;;;11.75;10.55;;;13.50;66.30;;;;;;4947347;28;20211;-63
2022/03/03 11:22:44;;;;;;;14.25;9.85;;;13.70;65.20;;;;;;4944284;28;20234;-64
2022/03/03 11:25:15;;;;;;;10.90;9.80;;;14.00;63.10;;;;;;4945391;28;20234;-64
2022/03/03 11:27:44;;;;;;;12.23;10.98;;;14.20;63.90;;;;;;4947450;28;20233;-63
2022/03/03 11:30:19;;;;;;;10.02;9.02;;;14.50;63.40;;;;;;4947595;28;20265;-63
2022/03/03 11:33:07;;;;;;;10.95;9.95;;;14.40;62.70;;;;;;4944844;28;20294;-63
2022/03/03 11:35:47;;;;;;;10.23;9.30;;;14.30;61.70;;;;;;4948175;28;20318;-63
2022/03/03 11:38:15;;;;;;;11.02;9.93;;;14.70;60.90;;;;;;4939562;28;20314;-63
2022/03/03 11:40:57;;;;;;;9.77;8.88;;;15.00;62.60;;;;;;4949004;28;20616;-63
2022/03/03 11:43:26;;;;;;;10.43;9.32;;;15.20;59.90;;;;;;4944308;28;20210;-63
2022/03/03 11:45:57;;;;;;;10.52;9.50;;;15.00;60.20;;;;;;4942784;28;20287;-63
2022/03/03 11:48:37;;;;;;;7.70;7.00;;;15.00;62.00;;;;;;4945078;28;20315;-64
2022/03/03 11:51:33;;;;;;;8.27;7.57;;;15.10;59.40;;;;;;4944598;28;20320;-63
2022/03/03 11:54:27;;;;;;;8.25;7.45;;;15.00;56.20;;;;;;4947937;28;20230;-63
2022/03/03 11:57:23;;;;;;;9.75;7.50;;;15.10;56.90;;;;;;4944440;28;20316;-64
2022/03/03 11:59:51;;;;;;;6.93;6.25;;;14.90;54.40;;;;;;4947545;28;20661;-64
2022/03/03 12:02:29;;;;;;;9.00;8.10;;;14.90;54.40;;;;;;4942219;28;20266;-63
2022/03/03 12:05:34;;;;;;;8.27;7.53;;;14.80;56.70;;;;;;4944784;28;20685;-63
2022/03/03 12:08:04;;;;;;;7.63;6.93;;;15.00;57.20;;;;;;4946368;28;20298;-62
2022/03/03 12:10:33;;;;;;;9.45;8.35;;;15.10;55.70;;;;;;4950225;28;20210;-63
2022/03/03 12:13:25;;;;;;;9.20;8.30;;;15.20;56.70;;;;;;4938277;28;20250;-63
2022/03/03 12:16:25;;;;;;;9.23;8.43;;;15.10;56.30;;;;;;4940097;28;20318;-64
2022/03/03 12:19:13;;;;;;;9.32;8.05;;;15.20;57.20;;;;;;4937212;28;20237;-62
2022/03/03 12:21:43;;;;;;;9.00;8.13;;;15.20;56.40;;;;;;4940073;28;20295;-63
2022/03/03 12:24:34;;;;;;;10.73;8.63;;;15.20;57.10;;;;;;4940337;28;20208;-63
2022/03/03 12:27:11;;;;;;;10.43;9.10;;;15.10;57.50;;;;;;4937659;28;20251;-63
2022/03/03 12:29:57;;;;;;;10.50;9.57;;;15.00;58.20;;;;;;4940582;28;20207;-64
2022/03/03 12:32:45;;;;;;;11.13;10.13;;;15.20;56.80;;;;;;4938148;28;20235;-62
2022/03/03 12:35:26;;;;;;;9.60;8.77;;;15.00;59.00;;;;;;4937027;28;20234;-62
2022/03/03 12:37:59;;;;;;;9.35;8.45;;;15.30;57.80;;;;;;4938481;28;20231;-63
2022/03/03 12:40:31;;;;;;;11.15;7.80;;;14.90;56.80;;;;;;4950572;28;20234;-62
2022/03/03 12:42:59;;;;;;;8.05;7.25;;;14.70;55.50;;;;;;4939930;28;20207;-62
2022/03/03 12:45:31;;;;;;;8.68;7.90;;;14.70;54.90;;;;;;4942157;28;20255;-63
2022/03/03 12:47:59;;;;;;;9.80;8.73;;;14.80;55.60;;;;;;4943608;28;20227;-63
2022/03/03 12:50:33;;;;;;;9.32;8.43;;;14.90;57.00;;;;;;4943620;28;20689;-63